ePrivacy and GPDR Cookie Consent by Cookie Consent
EmailTwitter


Observations de surface / Canada / CYYZ (71624)

Régions: Québec | Canada | États-Unis | Europe | France | UK | Ailleurs
Station
Affichage
Infos & localisation pour CYYZ (71624) | Aide pour décoder les METARs

Observations prises le 2022-08-14 à 11H00 UTC à TORONTO A, ON (CYYZ)

Etat du ciel: partiellement nuageux.

Température: 18.0 Celsius

Point de rosée: 10.0 Celsius

Humidité relative: 59%

Vents: Nord à 9 km/h ou 5 noeuds.

Pression au niveau moyen de la mer: 101.77 kilopascals.

Calage altimétrique: 101.76 kilopascals ou 30.05 pouces de mercure.

Visibilité horizontale: 15.00 milles terrestres ou 24.00 kilomètres.

Hauteur du plafond: 4267 mètres ( 14000 pieds ).

Observation METAR:

CYYZ 141100Z 01005KT 15SM FEW120 BKN140 18/10 A3005 RMK AC2AC4 SLP177 DENSITY

ALT 900FT=